sensor_id;sensor_type;location;lat;lon;timestamp;pressure;altitude;pressure_sealevel;temperature;humidity
58658;BME280;44428;45.630;13.786;2022-12-13T00:01:45;101043.16;;;-0.09;50.58
58658;BME280;44428;45.630;13.786;2022-12-13T00:04:11;101040.50;;;-0.05;50.53
58658;BME280;44428;45.630;13.786;2022-12-13T00:06:38;101035.41;;;-0.11;50.15
58658;BME280;44428;45.630;13.786;2022-12-13T00:09:04;101031.66;;;0.03;48.02
58658;BME280;44428;45.630;13.786;2022-12-13T00:11:30;101035.88;;;0.08;48.49
58658;BME280;44428;45.630;13.786;2022-12-13T00:13:56;101029.69;;;0.14;48.44
58658;BME280;44428;45.630;13.786;2022-12-13T00:16:23;101033.06;;;0.19;48.28
58658;BME280;44428;45.630;13.786;2022-12-13T00:18:52;101028.72;;;0.19;48.90
58658;BME280;44428;45.630;13.786;2022-12-13T00:21:21;101034.69;;;0.23;49.11
58658;BME280;44428;45.630;13.786;2022-12-13T00:23:47;101019.09;;;0.23;49.79
58658;BME280;44428;45.630;13.786;2022-12-13T00:26:18;101029.56;;;0.20;49.47
58658;BME280;44428;45.630;13.786;2022-12-13T00:28:45;101024.50;;;0.14;49.37
58658;BME280;44428;45.630;13.786;2022-12-13T00:31:14;101024.56;;;0.11;49.40
58658;BME280;44428;45.630;13.786;2022-12-13T00:33:40;101020.94;;;0.18;47.13
58658;BME280;44428;45.630;13.786;2022-12-13T00:36:06;101020.84;;;0.21;45.47
58658;BME280;44428;45.630;13.786;2022-12-13T00:38:34;101025.66;;;0.39;44.56
58658;BME280;44428;45.630;13.786;2022-12-13T00:41:11;101030.50;;;0.55;43.03
58658;BME280;44428;45.630;13.786;2022-12-13T00:43:37;101037.25;;;0.62;43.26
58658;BME280;44428;45.630;13.786;2022-12-13T00:46:04;101032.13;;;0.59;44.28
58658;BME280;44428;45.630;13.786;2022-12-13T00:48:29;101027.94;;;0.53;44.38
58658;BME280;44428;45.630;13.786;2022-12-13T00:50:55;101027.16;;;0.50;44.27
58658;BME280;44428;45.630;13.786;2022-12-13T00:53:21;101025.53;;;0.45;44.74
58658;BME280;44428;45.630;13.786;2022-12-13T00:55:46;101025.72;;;0.36;46.71
58658;BME280;44428;45.630;13.786;2022-12-13T00:58:12;101029.13;;;0.38;46.37
58658;BME280;44428;45.630;13.786;2022-12-13T01:00:37;101030.97;;;0.33;45.85
58658;BME280;44428;45.630;13.786;2022-12-13T01:03:03;101025.91;;;0.27;47.08
58658;BME280;44428;45.630;13.786;2022-12-13T01:05:47;101026.81;;;0.28;48.04
58658;BME280;44428;45.630;13.786;2022-12-13T01:08:14;101024.34;;;0.20;48.31
58658;BME280;44428;45.630;13.786;2022-12-13T01:10:44;101026.13;;;0.18;48.37
58658;BME280;44428;45.630;13.786;2022-12-13T01:13:10;101027.78;;;0.22;47.97
58658;BME280;44428;45.630;13.786;2022-12-13T01:15:42;101018.34;;;0.18;47.91
58658;BME280;44428;45.630;13.786;2022-12-13T01:18:10;101034.75;;;0.20;48.68
58658;BME280;44428;45.630;13.786;2022-12-13T01:20:36;101026.34;;;0.09;49.06
58658;BME280;44428;45.630;13.786;2022-12-13T01:23:03;101033.19;;;0.13;49.08
58658;BME280;44428;45.630;13.786;2022-12-13T01:25:29;101036.78;;;0.06;48.75
58658;BME280;44428;45.630;13.786;2022-12-13T01:27:55;101035.78;;;0.13;49.24
58658;BME280;44428;45.630;13.786;2022-12-13T01:30:20;101034.88;;;0.14;49.74
58658;BME280;44428;45.630;13.786;2022-12-13T01:32:46;101029.69;;;0.14;49.74
58658;BME280;44428;45.630;13.786;2022-12-13T01:35:12;101037.47;;;0.15;49.90
58658;BME280;44428;45.630;13.786;2022-12-13T01:37:40;101038.38;;;0.13;50.25
58658;BME280;44428;45.630;13.786;2022-12-13T01:40:08;101045.28;;;0.14;49.75
58658;BME280;44428;45.630;13.786;2022-12-13T01:42:37;101037.41;;;0.18;49.17
58658;BME280;44428;45.630;13.786;2022-12-13T01:45:20;101048.72;;;0.16;49.88
58658;BME280;44428;45.630;13.786;2022-12-13T01:47:50;101045.34;;;0.11;49.74
58658;BME280;44428;45.630;13.786;2022-12-13T01:50:26;101038.53;;;0.07;49.53
58658;BME280;44428;45.630;13.786;2022-12-13T01:52:53;101036.72;;;0.09;49.74
58658;BME280;44428;45.630;13.786;2022-12-13T01:55:21;101033.47;;;0.01;49.94
58658;BME280;44428;45.630;13.786;2022-12-13T01:57:49;101038.66;;;0.01;48.53
58658;BME280;44428;45.630;13.786;2022-12-13T02:00:16;101030.94;;;-0.03;48.04
58658;BME280;44428;45.630;13.786;2022-12-13T02:02:43;101032.50;;;0.05;48.46
58658;BME280;44428;45.630;13.786;2022-12-13T02:05:16;101030.66;;;0.10;47.61
58658;BME280;44428;45.630;13.786;2022-12-13T02:07:45;101029.75;;;0.11;47.89
58658;BME280;44428;45.630;13.786;2022-12-13T02:10:12;101022.88;;;0.10;48.30
58658;BME280;44428;45.630;13.786;2022-12-13T02:12:39;101015.94;;;0.09;48.09
58658;BME280;44428;45.630;13.786;2022-12-13T02:15:11;101005.53;;;0.09;47.66
58658;BME280;44428;45.630;13.786;2022-12-13T02:27:06;100998.44;;;0.17;46.75
58658;BME280;44428;45.630;13.786;2022-12-13T02:29:38;100992.41;;;0.15;47.16
58658;BME280;44428;45.630;13.786;2022-12-13T02:38:02;100984.28;;;0.66;43.62
58658;BME280;44428;45.630;13.786;2022-12-13T02:40:37;100979.06;;;0.67;44.98
58658;BME280;44428;45.630;13.786;2022-12-13T02:43:08;100976.53;;;0.63;45.36
58658;BME280;44428;45.630;13.786;2022-12-13T02:45:43;100983.66;;;0.56;46.34
58658;BME280;44428;45.630;13.786;2022-12-13T02:48:11;100977.38;;;0.65;44.96
58658;BME280;44428;45.630;13.786;2022-12-13T02:50:38;100972.91;;;0.70;45.44
58658;BME280;44428;45.630;13.786;2022-12-13T02:53:06;100972.75;;;0.76;44.58
58658;BME280;44428;45.630;13.786;2022-12-13T02:55:37;100976.00;;;0.84;44.57
58658;BME280;44428;45.630;13.786;2022-12-13T02:58:03;100966.47;;;0.85;45.37
58658;BME280;44428;45.630;13.786;2022-12-13T03:09:42;100962.34;;;0.76;46.53
58658;BME280;44428;45.630;13.786;2022-12-13T03:17:26;100965.59;;;0.84;45.28
58658;BME280;44428;45.630;13.786;2022-12-13T03:19:56;100958.44;;;0.93;45.08
58658;BME280;44428;45.630;13.786;2022-12-13T03:22:21;100955.19;;;0.84;45.88
58658;BME280;44428;45.630;13.786;2022-12-13T03:24:47;100968.78;;;0.96;45.25
58658;BME280;44428;45.630;13.786;2022-12-13T03:27:14;100964.16;;;1.07;44.73
58658;BME280;44428;45.630;13.786;2022-12-13T03:29:39;100956.25;;;1.10;44.80
58658;BME280;44428;45.630;13.786;2022-12-13T03:32:05;100950.22;;;1.09;43.97
58658;BME280;44428;45.630;13.786;2022-12-13T03:34:31;100950.13;;;1.12;43.41
58658;BME280;44428;45.630;13.786;2022-12-13T03:36:56;100943.91;;;1.18;43.50
58658;BME280;44428;45.630;13.786;2022-12-13T03:39:22;100937.72;;;1.21;43.08
58658;BME280;44428;45.630;13.786;2022-12-13T03:41:48;100944.91;;;1.12;43.82
58658;BME280;44428;45.630;13.786;2022-12-13T03:44:14;100945.69;;;1.16;43.64
58658;BME280;44428;45.630;13.786;2022-12-13T03:46:40;100948.19;;;1.19;42.73
58658;BME280;44428;45.630;13.786;2022-12-13T03:49:06;100947.28;;;1.20;43.02
58658;BME280;44428;45.630;13.786;2022-12-13T03:51:31;100938.69;;;1.18;43.44
58658;BME280;44428;45.630;13.786;2022-12-13T03:53:57;100938.69;;;1.18;43.82
58658;BME280;44428;45.630;13.786;2022-12-13T03:56:23;100936.13;;;1.17;44.06
58658;BME280;44428;45.630;13.786;2022-12-13T03:58:48;100928.03;;;1.27;43.64
58658;BME280;44428;45.630;13.786;2022-12-13T04:01:15;100925.38;;;1.29;42.99
58658;BME280;44428;45.630;13.786;2022-12-13T04:03:44;100916.72;;;1.28;43.80
58658;BME280;44428;45.630;13.786;2022-12-13T04:06:11;100917.44;;;1.33;42.79
58658;BME280;44428;45.630;13.786;2022-12-13T04:08:38;100905.22;;;1.35;41.83
58658;BME280;44428;45.630;13.786;2022-12-13T04:11:04;100903.59;;;1.31;42.31
58658;BME280;44428;45.630;13.786;2022-12-13T04:13:49;100909.66;;;1.32;43.13
58658;BME280;44428;45.630;13.786;2022-12-13T04:16:15;100912.16;;;1.36;43.63
58658;BME280;44428;45.630;13.786;2022-12-13T04:18:41;100915.53;;;1.38;43.67
58658;BME280;44428;45.630;13.786;2022-12-13T04:21:07;100920.75;;;1.38;43.73
58658;BME280;44428;45.630;13.786;2022-12-13T04:23:32;100922.66;;;1.33;43.80
58658;BME280;44428;45.630;13.786;2022-12-13T04:25:58;100913.28;;;1.26;43.83
58658;BME280;44428;45.630;13.786;2022-12-13T04:28:24;100910.84;;;1.20;43.85
58658;BME280;44428;45.630;13.786;2022-12-13T04:30:50;100909.91;;;1.24;43.79
58658;BME280;44428;45.630;13.786;2022-12-13T04:33:16;100906.38;;;1.25;44.10
58658;BME280;44428;45.630;13.786;2022-12-13T04:35:42;100907.38;;;1.21;44.43
58658;BME280;44428;45.630;13.786;2022-12-13T04:38:07;100905.56;;;1.23;44.11
58658;BME280;44428;45.630;13.786;2022-12-13T04:40:34;100900.34;;;1.23;43.54
58658;BME280;44428;45.630;13.786;2022-12-13T04:42:59;100903.78;;;1.25;43.45
58658;BME280;44428;45.630;13.786;2022-12-13T04:45:25;100895.16;;;1.23;43.51
58658;BME280;44428;45.630;13.786;2022-12-13T04:47:51;100895.25;;;1.20;43.49
58658;BME280;44428;45.630;13.786;2022-12-13T04:50:17;100893.19;;;1.31;42.53
58658;BME280;44428;45.630;13.786;2022-12-13T04:52:43;100899.16;;;1.35;42.93
58658;BME280;44428;45.630;13.786;2022-12-13T04:55:09;100900.00;;;1.35;43.10
58658;BME280;44428;45.630;13.786;2022-12-13T04:57:36;100893.19;;;1.31;43.42
58658;BME280;44428;45.630;13.786;2022-12-13T05:00:04;100889.75;;;1.31;43.12
58658;BME280;44428;45.630;13.786;2022-12-13T05:02:30;100883.69;;;1.30;43.60
58658;BME280;44428;45.630;13.786;2022-12-13T05:04:57;100876.84;;;1.26;43.91
58658;BME280;44428;45.630;13.786;2022-12-13T05:07:22;100869.13;;;1.23;44.06
58658;BME280;44428;45.630;13.786;2022-12-13T05:09:49;100869.31;;;1.17;44.08
58658;BME280;44428;45.630;13.786;2022-12-13T05:12:15;100879.72;;;1.17;44.63
58658;BME280;44428;45.630;13.786;2022-12-13T05:14:41;100876.38;;;1.12;45.10
58658;BME280;44428;45.630;13.786;2022-12-13T05:17:06;100886.78;;;1.12;44.74
58658;BME280;44428;45.630;13.786;2022-12-13T05:19:32;100885.09;;;1.11;44.99
58658;BME280;44428;45.630;13.786;2022-12-13T05:21:59;100890.94;;;1.19;45.37
58658;BME280;44428;45.630;13.786;2022-12-13T05:24:24;100893.38;;;1.25;45.42
58658;BME280;44428;45.630;13.786;2022-12-13T05:26:50;100888.06;;;1.28;44.79
58658;BME280;44428;45.630;13.786;2022-12-13T05:29:16;100887.91;;;1.34;44.94
58658;BME280;44428;45.630;13.786;2022-12-13T05:31:42;100891.41;;;1.33;44.92
58658;BME280;44428;45.630;13.786;2022-12-13T05:34:08;100882.94;;;1.25;44.99
58658;BME280;44428;45.630;13.786;2022-12-13T05:36:33;100896.88;;;1.24;45.55
58658;BME280;44428;45.630;13.786;2022-12-13T05:38:59;100895.06;;;1.26;45.71
58658;BME280;44428;45.630;13.786;2022-12-13T05:41:32;100883.13;;;1.19;46.10
58658;BME280;44428;45.630;13.786;2022-12-13T05:44:00;100883.13;;;1.19;45.93
58658;BME280;44428;45.630;13.786;2022-12-13T05:46:26;100891.75;;;1.21;45.70
58658;BME280;44428;45.630;13.786;2022-12-13T05:48:51;100891.84;;;1.18;46.60
58658;BME280;44428;45.630;13.786;2022-12-13T05:51:17;100890.22;;;1.14;46.61
58658;BME280;44428;45.630;13.786;2022-12-13T05:53:43;100886.03;;;1.08;46.59
58658;BME280;44428;45.630;13.786;2022-12-13T05:56:09;100888.78;;;1.04;47.00
58658;BME280;44428;45.630;13.786;2022-12-13T05:58:37;100886.97;;;1.06;46.29
58658;BME280;44428;45.630;13.786;2022-12-13T06:01:04;100893.72;;;1.13;46.45
58658;BME280;44428;45.630;13.786;2022-12-13T06:03:31;100895.69;;;1.05;46.22
58658;BME280;44428;45.630;13.786;2022-12-13T06:05:59;100893.88;;;1.07;46.57
58658;BME280;44428;45.630;13.786;2022-12-13T06:08:25;100889.47;;;1.09;46.47
58658;BME280;44428;45.630;13.786;2022-12-13T06:10:56;100887.69;;;1.11;45.77
58658;BME280;44428;45.630;13.786;2022-12-13T06:13:22;100880.72;;;1.11;46.56
58658;BME280;44428;45.630;13.786;2022-12-13T06:15:48;100882.38;;;1.16;46.43
58658;BME280;44428;45.630;13.786;2022-12-13T06:18:13;100890.13;;;1.17;46.32
58658;BME280;44428;45.630;13.786;2022-12-13T06:20:39;100890.03;;;1.20;46.33
58658;BME280;44428;45.630;13.786;2022-12-13T06:23:06;100886.66;;;1.18;46.44
58658;BME280;44428;45.630;13.786;2022-12-13T06:25:32;100893.53;;;1.19;46.16
58658;BME280;44428;45.630;13.786;2022-12-13T06:27:58;100900.53;;;1.17;46.61
58658;BME280;44428;45.630;13.786;2022-12-13T06:30:24;100891.84;;;1.18;46.58
58658;BME280;44428;45.630;13.786;2022-12-13T06:32:50;100888.44;;;1.16;46.84
58658;BME280;44428;45.630;13.786;2022-12-13T06:35:15;100890.28;;;1.11;46.77
58658;BME280;44428;45.630;13.786;2022-12-13T06:37:41;100896.16;;;1.19;46.55
58658;BME280;44428;45.630;13.786;2022-12-13T06:40:07;100891.84;;;1.18;45.98
58658;BME280;44428;45.630;13.786;2022-12-13T06:42:33;100896.88;;;1.24;44.74
58658;BME280;44428;45.630;13.786;2022-12-13T06:44:59;100906.22;;;1.30;45.93
58658;BME280;44428;45.630;13.786;2022-12-13T06:47:25;100901.81;;;1.33;45.79
58658;BME280;44428;45.630;13.786;2022-12-13T06:49:51;100900.66;;;1.42;45.67
58658;BME280;44428;45.630;13.786;2022-12-13T06:52:16;100899.06;;;1.38;44.75
58658;BME280;44428;45.630;13.786;2022-12-13T06:54:42;100917.44;;;1.33;45.35
58658;BME280;44428;45.630;13.786;2022-12-13T06:57:12;100916.47;;;1.36;44.79
58658;BME280;44428;45.630;13.786;2022-12-13T06:59:38;100907.63;;;1.42;44.68
58658;BME280;44428;45.630;13.786;2022-12-13T07:02:04;100915.16;;;1.51;44.94
58658;BME280;44428;45.630;13.786;2022-12-13T07:04:31;100904.94;;;1.45;45.19
58658;BME280;44428;45.630;13.786;2022-12-13T07:06:57;100913.38;;;1.53;44.70
58658;BME280;44428;45.630;13.786;2022-12-13T07:09:22;100918.31;;;1.62;44.39
58658;BME280;44428;45.630;13.786;2022-12-13T07:11:48;100918.22;;;1.65;45.27
58658;BME280;44428;45.630;13.786;2022-12-13T07:14:14;100905.16;;;1.67;44.81
58658;BME280;44428;45.630;13.786;2022-12-13T07:16:39;100912.75;;;1.74;44.00
58658;BME280;44428;45.630;13.786;2022-12-13T07:19:05;100905.75;;;1.76;43.75
58658;BME280;44428;45.630;13.786;2022-12-13T07:21:31;100905.56;;;1.82;44.02
58658;BME280;44428;45.630;13.786;2022-12-13T07:23:57;100907.25;;;1.83;44.79
58658;BME280;44428;45.630;13.786;2022-12-13T07:26:23;100909.03;;;1.81;43.60
58658;BME280;44428;45.630;13.786;2022-12-13T07:28:49;100900.06;;;1.92;42.46
58658;BME280;44428;45.630;13.786;2022-12-13T07:31:16;100906.56;;;2.05;41.00
58658;BME280;44428;45.630;13.786;2022-12-13T07:33:42;100903.63;;;2.16;40.66
58658;BME280;44428;45.630;13.786;2022-12-13T07:36:13;100896.59;;;2.18;40.34
58658;BME280;44428;45.630;13.786;2022-12-13T07:38:40;100899.06;;;2.22;40.87
58658;BME280;44428;45.630;13.786;2022-12-13T07:41:06;100911.09;;;2.26;39.99
58658;BME280;44428;45.630;13.786;2022-12-13T07:43:32;100915.91;;;2.39;39.21
58658;BME280;44428;45.630;13.786;2022-12-13T07:46:00;100909.72;;;2.41;39.37
58658;BME280;44428;45.630;13.786;2022-12-13T07:48:27;100901.97;;;2.40;41.28
58658;BME280;44428;45.630;13.786;2022-12-13T07:50:53;100917.72;;;2.37;40.96
58658;BME280;44428;45.630;13.786;2022-12-13T07:53:19;100916.47;;;2.48;40.19
58658;BME280;44428;45.630;13.786;2022-12-13T07:55:46;100908.69;;;2.47;40.67
58658;BME280;44428;45.630;13.786;2022-12-13T07:58:13;100926.00;;;2.49;40.97
58658;BME280;44428;45.630;13.786;2022-12-13T08:00:43;100919.41;;;2.64;39.98
58658;BME280;44428;45.630;13.786;2022-12-13T08:03:09;100917.75;;;2.62;40.79
58658;BME280;44428;45.630;13.786;2022-12-13T08:05:35;100923.81;;;2.62;41.19
58658;BME280;44428;45.630;13.786;2022-12-13T08:08:03;100923.00;;;2.60;40.75
58658;BME280;44428;45.630;13.786;2022-12-13T08:10:30;100927.34;;;2.61;40.87
58658;BME280;44428;45.630;13.786;2022-12-13T08:12:55;100919.31;;;2.67;40.89
58658;BME280;44428;45.630;13.786;2022-12-13T08:15:21;100925.13;;;2.75;39.38
58658;BME280;44428;45.630;13.786;2022-12-13T08:17:47;100926.50;;;2.86;39.49
58658;BME280;44428;45.630;13.786;2022-12-13T08:20:14;100938.19;;;2.99;39.33
58658;BME280;44428;45.630;13.786;2022-12-13T08:22:39;100922.63;;;2.96;39.18
58658;BME280;44428;45.630;13.786;2022-12-13T08:25:06;100919.47;;;2.88;39.83
58658;BME280;44428;45.630;13.786;2022-12-13T08:27:32;100924.69;;;2.88;40.19
58658;BME280;44428;45.630;13.786;2022-12-13T08:29:58;100922.97;;;2.87;40.28
58658;BME280;44428;45.630;13.786;2022-12-13T08:32:23;100932.13;;;2.98;40.13
58658;BME280;44428;45.630;13.786;2022-12-13T08:34:49;100917.91;;;3.07;39.40
58658;BME280;44428;45.630;13.786;2022-12-13T08:37:15;100919.69;;;3.05;38.02
58658;BME280;44428;45.630;13.786;2022-12-13T08:39:42;100918.72;;;3.09;39.05
58658;BME280;44428;45.630;13.786;2022-12-13T08:42:18;100912.22;;;3.19;40.58
58658;BME280;44428;45.630;13.786;2022-12-13T08:44:45;100911.09;;;3.27;40.24
58658;BME280;44428;45.630;13.786;2022-12-13T08:47:11;100909.06;;;3.35;39.08
58658;BME280;44428;45.630;13.786;2022-12-13T08:49:36;100909.31;;;3.51;38.17
58658;BME280;44428;45.630;13.786;2022-12-13T08:52:02;100905.81;;;3.52;37.14
58658;BME280;44428;45.630;13.786;2022-12-13T08:54:28;100909.91;;;3.59;37.40
58658;BME280;44428;45.630;13.786;2022-12-13T08:56:54;100909.38;;;3.73;36.81
58658;BME280;44428;45.630;13.786;2022-12-13T08:59:21;100912.88;;;3.72;36.79
58658;BME280;44428;45.630;13.786;2022-12-13T09:01:48;100913.00;;;3.68;38.30
58658;BME280;44428;45.630;13.786;2022-12-13T09:04:14;100916.56;;;3.66;39.41
58658;BME280;44428;45.630;13.786;2022-12-13T09:06:41;100910.94;;;3.77;38.16
58658;BME280;44428;45.630;13.786;2022-12-13T09:09:08;100908.78;;;3.88;37.87
58658;BME280;44428;45.630;13.786;2022-12-13T09:11:33;100913.03;;;3.90;39.47
58658;BME280;44428;45.630;13.786;2022-12-13T09:13:59;100914.66;;;3.93;39.11
58658;BME280;44428;45.630;13.786;2022-12-13T09:16:25;100905.00;;;3.95;38.73
58658;BME280;44428;45.630;13.786;2022-12-13T09:18:52;100916.78;;;4.05;38.70
58658;BME280;44428;45.630;13.786;2022-12-13T09:21:18;100904.75;;;4.01;38.56
58658;BME280;44428;45.630;13.786;2022-12-13T09:23:44;100902.22;;;4.00;38.60
58658;BME280;44428;45.630;13.786;2022-12-13T09:26:12;100899.47;;;4.03;38.34
58658;BME280;44428;45.630;13.786;2022-12-13T09:28:39;100892.34;;;4.06;37.31
58658;BME280;44428;45.630;13.786;2022-12-13T09:31:12;100880.06;;;4.08;37.42
58658;BME280;44428;45.630;13.786;2022-12-13T09:33:38;100881.53;;;4.16;36.44
58658;BME280;44428;45.630;13.786;2022-12-13T09:36:05;100878.00;;;4.17;36.27
58658;BME280;44428;45.630;13.786;2022-12-13T09:38:34;100877.59;;;4.26;36.51
58658;BME280;44428;45.630;13.786;2022-12-13T09:43:42;100894.00;;;4.29;36.68
58658;BME280;44428;45.630;13.786;2022-12-13T09:46:16;100890.63;;;4.27;37.38
58658;BME280;44428;45.630;13.786;2022-12-13T09:48:44;100895.88;;;4.05;40.43
58658;BME280;44428;45.630;13.786;2022-12-13T09:51:10;100908.50;;;3.72;41.99
58658;BME280;44428;45.630;13.786;2022-12-13T09:53:36;100903.66;;;3.85;42.00
58658;BME280;44428;45.630;13.786;2022-12-13T09:56:02;100905.38;;;3.86;42.66
58658;BME280;44428;45.630;13.786;2022-12-13T09:58:29;100899.78;;;3.95;42.11
58658;BME280;44428;45.630;13.786;2022-12-13T10:00:59;100903.19;;;3.97;41.56
58658;BME280;44428;45.630;13.786;2022-12-13T10:03:25;100889.19;;;3.98;41.14
58658;BME280;44428;45.630;13.786;2022-12-13T10:05:57;100887.75;;;3.91;40.56
58658;BME280;44428;45.630;13.786;2022-12-13T10:08:31;100882.16;;;4.00;40.96
58658;BME280;44428;45.630;13.786;2022-12-13T10:10:59;100871.69;;;4.00;38.77
58658;BME280;44428;45.630;13.786;2022-12-13T10:13:39;100863.53;;;4.08;39.48
58658;BME280;44428;45.630;13.786;2022-12-13T10:18:57;100881.03;;;4.28;38.25
58658;BME280;44428;45.630;13.786;2022-12-13T10:21:32;100879.06;;;4.33;38.06
58658;BME280;44428;45.630;13.786;2022-12-13T10:24:30;100879.34;;;4.27;39.61
58658;BME280;44428;45.630;13.786;2022-12-13T10:27:13;100877.47;;;4.29;40.43
58658;BME280;44428;45.630;13.786;2022-12-13T10:30:00;100874.59;;;4.35;40.21
58658;BME280;44428;45.630;13.786;2022-12-13T10:32:27;100874.56;;;4.36;40.94
58658;BME280;44428;45.630;13.786;2022-12-13T10:34:53;100864.41;;;4.29;41.54
58658;BME280;44428;45.630;13.786;2022-12-13T10:39:48;100863.00;;;4.42;40.54
58658;BME280;44428;45.630;13.786;2022-12-13T10:42:16;100859.13;;;4.08;41.90
58658;BME280;44428;45.630;13.786;2022-12-13T10:44:42;100861.28;;;4.21;42.24
58658;BME280;44428;45.630;13.786;2022-12-13T10:52:40;100845.56;;;4.41;40.17
58658;BME280;44428;45.630;13.786;2022-12-13T10:55:27;100848.72;;;4.49;40.12
58658;BME280;44428;45.630;13.786;2022-12-13T10:57:56;100855.91;;;4.44;40.50
58658;BME280;44428;45.630;13.786;2022-12-13T11:00:39;100853.09;;;4.49;39.29
58658;BME280;44428;45.630;13.786;2022-12-13T11:03:05;100848.00;;;4.46;38.77
58658;BME280;44428;45.630;13.786;2022-12-13T11:05:33;100847.28;;;4.42;39.70
58658;BME280;44428;45.630;13.786;2022-12-13T11:08:20;100845.44;;;4.44;38.11
58658;BME280;44428;45.630;13.786;2022-12-13T11:13:36;100853.56;;;4.18;41.02
58658;BME280;44428;45.630;13.786;2022-12-13T11:16:04;100846.59;;;4.17;41.83
58658;BME280;44428;45.630;13.786;2022-12-13T11:18:42;100851.56;;;4.23;39.94
58658;BME280;44428;45.630;13.786;2022-12-13T11:21:12;100858.41;;;4.27;39.33
58658;BME280;44428;45.630;13.786;2022-12-13T11:23:42;100860.34;;;4.22;39.32
58658;BME280;44428;45.630;13.786;2022-12-13T11:26:17;100860.22;;;4.25;40.16
58658;BME280;44428;45.630;13.786;2022-12-13T11:37:30;100863.63;;;4.27;40.35
58658;BME280;44428;45.630;13.786;2022-12-13T11:40:02;100857.47;;;4.28;39.99
58658;BME280;44428;45.630;13.786;2022-12-13T11:42:34;100846.34;;;4.23;39.55
58658;BME280;44428;45.630;13.786;2022-12-13T11:45:11;100845.31;;;4.27;40.77
58658;BME280;44428;45.630;13.786;2022-12-13T11:50:16;100842.72;;;4.27;39.08
58658;BME280;44428;45.630;13.786;2022-12-13T11:52:52;100841.25;;;4.20;39.85
58658;BME280;44428;45.630;13.786;2022-12-13T11:58:12;100833.94;;;4.28;39.94
58658;BME280;44428;45.630;13.786;2022-12-13T12:00:47;100838.31;;;4.27;40.17
58658;BME280;44428;45.630;13.786;2022-12-13T12:03:17;100837.59;;;4.24;40.65
58658;BME280;44428;45.630;13.786;2022-12-13T12:05:54;100838.44;;;4.24;40.94
58658;BME280;44428;45.630;13.786;2022-12-13T12:11:06;100833.13;;;4.26;41.98
58658;BME280;44428;45.630;13.786;2022-12-13T12:13:37;100833.81;;;4.31;42.32
58658;BME280;44428;45.630;13.786;2022-12-13T12:18:49;100825.28;;;4.26;42.54
58658;BME280;44428;45.630;13.786;2022-12-13T12:21:26;100826.00;;;4.29;41.71
58658;BME280;44428;45.630;13.786;2022-12-13T12:24:22;100828.84;;;4.25;40.72
58658;BME280;44428;45.630;13.786;2022-12-13T12:33:12;100822.19;;;4.18;41.63
58658;BME280;44428;45.630;13.786;2022-12-13T12:35:54;100815.34;;;4.13;41.74
58658;BME280;44428;45.630;13.786;2022-12-13T12:47:28;100819.16;;;4.06;43.60
58658;BME280;44428;45.630;13.786;2022-12-13T12:53:11;100808.56;;;4.09;43.53
58658;BME280;44428;45.630;13.786;2022-12-13T12:55:50;100810.63;;;4.01;43.66
58658;BME280;44428;45.630;13.786;2022-12-13T12:58:32;100808.94;;;4.00;43.29
58658;BME280;44428;45.630;13.786;2022-12-13T13:04:01;100808.34;;;3.94;44.67
58658;BME280;44428;45.630;13.786;2022-12-13T13:06:45;100817.81;;;3.96;44.83
58658;BME280;44428;45.630;13.786;2022-12-13T13:09:16;100801.88;;;4.02;44.33
58658;BME280;44428;45.630;13.786;2022-12-13T13:11:44;100812.44;;;3.99;45.06
58658;BME280;44428;45.630;13.786;2022-12-13T13:14:30;100805.28;;;4.04;44.07
58658;BME280;44428;45.630;13.786;2022-12-13T13:16:58;100802.78;;;4.01;44.84
58658;BME280;44428;45.630;13.786;2022-12-13T13:21:56;100802.00;;;3.99;43.84
58658;BME280;44428;45.630;13.786;2022-12-13T13:24:27;100807.34;;;3.96;43.97
58658;BME280;44428;45.630;13.786;2022-12-13T13:27:26;100805.66;;;3.95;44.81
58658;BME280;44428;45.630;13.786;2022-12-13T13:30:04;100807.34;;;3.96;44.91
58658;BME280;44428;45.630;13.786;2022-12-13T13:32:38;100800.44;;;3.95;44.78
58658;BME280;44428;45.630;13.786;2022-12-13T13:37:57;100796.28;;;4.11;44.08
58658;BME280;44428;45.630;13.786;2022-12-13T13:40:35;100802.22;;;4.15;44.05
58658;BME280;44428;45.630;13.786;2022-12-13T14:23:49;100791.53;;;3.79;47.94
58658;BME280;44428;45.630;13.786;2022-12-13T14:26:28;100805.31;;;3.82;48.00
58658;BME280;44428;45.630;13.786;2022-12-13T14:28:58;100803.00;;;3.75;47.94
58658;BME280;44428;45.630;13.786;2022-12-13T14:33:52;100804.22;;;3.66;48.17
58658;BME280;44428;45.630;13.786;2022-12-13T14:36:26;100792.41;;;3.57;48.96
58658;BME280;44428;45.630;13.786;2022-12-13T14:39:03;100790.03;;;3.51;49.94
58658;BME280;44428;45.630;13.786;2022-12-13T14:41:29;100785.06;;;3.45;50.34
58658;BME280;44428;45.630;13.786;2022-12-13T14:44:12;100789.59;;;3.40;50.27
58658;BME280;44428;45.630;13.786;2022-12-13T14:46:48;100788.31;;;3.50;48.93
58658;BME280;44428;45.630;13.786;2022-12-13T14:49:14;100785.28;;;3.39;49.95
58658;BME280;44428;45.630;13.786;2022-12-13T14:51:40;100795.50;;;3.45;49.96
58658;BME280;44428;45.630;13.786;2022-12-13T14:54:06;100790.28;;;3.45;50.21
58658;BME280;44428;45.630;13.786;2022-12-13T14:56:56;100787.91;;;3.39;50.63
58658;BME280;44428;45.630;13.786;2022-12-13T14:59:22;100788.06;;;3.34;50.50
58658;BME280;44428;45.630;13.786;2022-12-13T15:02:03;100797.78;;;3.31;51.56
58658;BME280;44428;45.630;13.786;2022-12-13T15:04:33;100799.47;;;3.32;51.46
58658;BME280;44428;45.630;13.786;2022-12-13T15:07:32;100798.88;;;3.25;51.19
58658;BME280;44428;45.630;13.786;2022-12-13T15:10:03;100806.88;;;3.20;51.61
58658;BME280;44428;45.630;13.786;2022-12-13T15:12:30;100810.50;;;3.16;51.99
58658;BME280;44428;45.630;13.786;2022-12-13T15:14:58;100805.28;;;3.16;52.14